Overview Statistics Trail Chart Weather Telemetry Raw packets
 

This is the latest recevied weather packets stored in our database for station/object EA5DFV. If no packets are shown the sender has not sent any weather packets the latest 10 day(s).

<< 109 110 111 112 113 114 115 >>
Time Temp. Humidity Pressure Rain* Wind** Luminosity Snow
1787748817 32.78° C 51% 1009.7 hPa 0 mm - 733 W/m² -
1787748507 32.78° C 51% 1009.7 hPa 0 mm - 744 W/m² -
1787748218 32.78° C 52% 1009.7 hPa 0 mm - 737 W/m² -
1787747908 32.78° C 50% 1010.1 hPa 0 mm - 747 W/m² -
1787747602 32.78° C 51% 1010.2 hPa 0 mm - 703 W/m² -
1787747312 32.78° C 54% 1010.3 hPa 0 mm - 679 W/m² -
1787747009 32.78° C 55% 1010.4 hPa 0 mm - 747 W/m² -
1787746702 32.22° C 54% 1010.3 hPa 0 mm - 747 W/m² -
1787746104 32.78° C 54% 1010.6 hPa 0 mm - 754 W/m² -
1787745801 32.78° C 55% 1010.8 hPa 0 mm - 754 W/m² -
1787745512 32.78° C 55% 1010.8 hPa 0 mm - 751 W/m² -
1787745208 32.78° C 59% 1010.9 hPa 0 mm - 766 W/m² -
1787744902 32.78° C 60% 1010.6 hPa 0 mm - 751 W/m² -
1787744613 32.22° C 62% 1010.2 hPa 0 mm - 749 W/m² -
1787744309 32.22° C 62% 1010.3 hPa 0 mm - 728 W/m² -
1787744019 31.67° C 63% 1011 hPa 0 mm - 751 W/m² -
1787743710 31.67° C 63% 1011.4 hPa 0 mm - 657 W/m² -
1787743401 31.67° C 64% 1011 hPa 0 mm - 680 W/m² -
1787743111 31.67° C 64% 1012 hPa 0 mm - 232 W/m² -
1787742821 31.67° C 64% 1011.3 hPa 0 mm - 715 W/m² -
1787742514 31.67° C 63% 1011.3 hPa 0 mm - 631 W/m² -
1787742212 31.11° C 62% 1011.2 hPa 0 mm - 715 W/m² -
1787741923 31.11° C 61% 1011.4 hPa 0 mm - 687 W/m² -
1787741616 31.11° C 63% 1011.3 hPa 0 mm - 705 W/m² -
1787741306 31.11° C 62% 1011.3 hPa 0 mm - 719 W/m² -

* Rain latest hour (hover to see other rain measurements)
** Current wind speed in m/s (hover to see current wind gust speed)